createdAt,value
2022-10-13T00:00:05.548Z,61.17
2022-10-13T00:05:41.101Z,61.28
2022-10-13T00:10:44.440Z,55.50
2022-10-13T00:15:49.414Z,59.38
2022-10-13T00:20:54.133Z,55.63
2022-10-13T00:25:57.606Z,56.28
2022-10-13T00:31:00.942Z,61.70
2022-10-13T00:36:07.471Z,63.30
2022-10-13T00:41:11.009Z,53.22
2022-10-13T00:46:17.092Z,58.28
2022-10-13T00:51:27.345Z,46.80
2022-10-13T00:56:33.081Z,51.03
2022-10-13T01:01:36.550Z,54.97
2022-10-13T01:06:42.278Z,50.33
2022-10-13T01:17:12.053Z,49.67
2022-10-13T01:22:31.877Z,45.20
2022-10-13T01:28:05.658Z,41.38
2022-10-13T01:33:20.946Z,40.53
2022-10-13T01:38:35.462Z,34.83
2022-10-13T01:43:44.252Z,40.60
2022-10-13T01:48:52.129Z,43.33
2022-10-13T01:53:55.487Z,46.78
2022-10-13T01:59:02.433Z,43.38
2022-10-13T02:04:18.372Z,53.15
2022-10-13T02:09:27.910Z,38.72
2022-10-13T02:14:34.821Z,41.08
2022-10-13T02:19:40.995Z,47.22
2022-10-13T02:24:44.459Z,44.92
2022-10-13T02:29:52.567Z,43.72
2022-10-13T02:34:57.714Z,39.28
2022-10-13T02:40:01.691Z,39.75
2022-10-13T02:45:05.996Z,38.40
2022-10-13T02:50:11.329Z,41.95
2022-10-13T02:55:14.769Z,45.92
2022-10-13T03:07:29.375Z,45.45
2022-10-13T03:12:33.146Z,44.58
2022-10-13T03:17:37.027Z,43.45
2022-10-13T03:22:43.967Z,48.63
2022-10-13T03:27:50.689Z,46.35
2022-10-13T03:32:54.311Z,42.63
2022-10-13T03:37:59.092Z,41.97
2022-10-13T03:43:04.040Z,45.13
2022-10-13T03:48:07.640Z,43.78
2022-10-13T03:53:12.648Z,41.38
2022-10-13T03:58:16.113Z,51.97
2022-10-13T04:03:22.662Z,37.17
2022-10-13T04:08:27.473Z,47.88
2022-10-13T04:13:30.964Z,41.55
2022-10-13T04:18:35.023Z,33.05
2022-10-13T04:23:39.754Z,39.63
2022-10-13T04:28:43.727Z,44.15
2022-10-13T04:33:47.498Z,41.50
2022-10-13T04:38:52.680Z,47.60
2022-10-13T04:43:56.217Z,42.20
2022-10-13T04:48:59.625Z,47.42
2022-10-13T04:54:10.235Z,49.45
2022-10-13T04:59:13.672Z,52.20
2022-10-13T05:04:18.972Z,46.65
2022-10-13T05:09:23.734Z,48.63
2022-10-13T05:14:27.064Z,54.80
2022-10-13T05:19:30.718Z,50.45
2022-10-13T05:24:37.559Z,51.22
2022-10-13T05:29:42.193Z,45.80
2022-10-13T05:34:45.723Z,60.38
2022-10-13T05:39:50.977Z,50.17
2022-10-13T05:44:54.585Z,50.28
2022-10-13T05:49:57.894Z,60.65
2022-10-13T05:55:06.373Z,47.78
2022-10-13T06:00:12.857Z,47.97
2022-10-13T06:05:19.418Z,55.00
2022-10-13T06:10:24.802Z,43.15
2022-10-13T06:15:28.527Z,43.20
2022-10-13T06:20:32.910Z,39.90
2022-10-13T06:25:37.701Z,48.53
2022-10-13T06:30:43.256Z,40.50
2022-10-13T06:35:46.861Z,44.70
2022-10-13T06:40:52.085Z,49.72
2022-10-13T06:45:59.549Z,48.95
2022-10-13T06:51:05.647Z,41.95
2022-10-13T06:56:10.822Z,38.05
2022-10-13T07:01:15.016Z,34.08
2022-10-13T07:06:19.139Z,28.92
2022-10-13T07:11:23.988Z,34.10
2022-10-13T07:16:33.270Z,27.13
2022-10-13T07:21:38.161Z,27.88
2022-10-13T07:26:43.027Z,32.15
2022-10-13T07:31:47.112Z,29.55
2022-10-13T07:36:50.672Z,27.17
2022-10-13T07:41:55.386Z,29.65
2022-10-13T07:47:00.638Z,31.08
2022-10-13T07:52:07.687Z,33.47
2022-10-13T07:57:12.669Z,27.80
2022-10-13T08:02:16.077Z,27.27
2022-10-13T08:07:19.766Z,28.85
2022-10-13T08:12:25.377Z,32.65
2022-10-13T08:17:28.892Z,31.15
2022-10-13T08:22:34.265Z,30.55
2022-10-13T08:27:50.742Z,31.63
2022-10-13T08:32:54.869Z,34.92
2022-10-13T08:37:58.410Z,23.58
2022-10-13T08:43:10.202Z,43.60
2022-10-13T08:48:18.630Z,26.02
2022-10-13T08:53:28.716Z,33.92
2022-10-13T08:58:35.601Z,23.65
2022-10-13T09:03:46.304Z,22.08
2022-10-13T09:08:54.190Z,21.45
2022-10-13T09:14:02.513Z,26.17
2022-10-13T09:19:15.608Z,21.63
2022-10-13T09:24:21.157Z,26.35
2022-10-13T09:29:28.172Z,47.55
2022-10-13T09:34:31.770Z,19.08
2022-10-13T09:39:35.394Z,18.45
2022-10-13T09:44:42.210Z,18.60
2022-10-13T09:50:06.683Z,18.58
2022-10-13T09:55:33.007Z,19.83
2022-10-13T10:00:39.926Z,20.73
2022-10-13T10:05:50.855Z,16.70
2022-10-13T10:10:55.774Z,17.77
2022-10-13T10:16:08.587Z,12.23
2022-10-13T10:21:24.810Z,18.98
2022-10-13T10:26:36.371Z,18.77
2022-10-13T10:31:54.796Z,11.77
2022-10-13T10:37:15.444Z,20.60
2022-10-13T10:42:37.041Z,16.20
2022-10-13T10:47:44.485Z,11.00
2022-10-13T10:52:55.276Z,15.05
2022-10-13T10:58:08.947Z,13.98
2022-10-13T11:03:23.560Z,21.08
2022-10-13T11:08:40.849Z,10.60
2022-10-13T11:13:54.965Z,9.75
2022-10-13T11:19:08.831Z,9.20
2022-10-13T11:24:55.555Z,10.85
2022-10-13T11:30:00.911Z,11.73
2022-10-13T11:35:21.203Z,8.05
2022-10-13T11:40:31.820Z,7.90
2022-10-13T11:46:25.734Z,12.00
2022-10-13T11:51:45.126Z,9.13
2022-10-13T11:56:51.122Z,6.53
2022-10-13T12:01:56.201Z,8.35
2022-10-13T12:07:03.450Z,11.98
2022-10-13T12:12:16.070Z,11.90
2022-10-13T12:17:25.580Z,15.45
2022-10-13T12:22:31.819Z,17.45
2022-10-13T12:27:47.232Z,16.00
2022-10-13T12:32:54.251Z,16.08
2022-10-13T12:38:03.228Z,21.52
2022-10-13T12:43:08.241Z,16.50
2022-10-13T12:48:30.331Z,21.63
2022-10-13T12:53:35.897Z,20.38
2022-10-13T12:58:44.678Z,17.70
2022-10-13T13:03:55.985Z,22.75
2022-10-13T13:09:21.150Z,19.58
2022-10-13T13:14:34.882Z,16.88
2022-10-13T13:19:39.286Z,19.10
2022-10-13T13:24:47.079Z,22.13
2022-10-13T13:29:50.518Z,18.30
2022-10-13T13:35:01.063Z,14.68
2022-10-13T13:40:35.278Z,22.42
2022-10-13T13:45:45.894Z,18.42
2022-10-13T13:50:49.727Z,19.88
2022-10-13T13:55:54.482Z,20.25
2022-10-13T14:00:58.000Z,21.77
2022-10-13T14:06:01.401Z,22.83
2022-10-13T14:11:17.231Z,25.45
2022-10-13T14:16:20.612Z,27.50
2022-10-13T14:21:25.095Z,22.58
2022-10-13T14:26:29.925Z,21.48
2022-10-13T14:31:33.563Z,20.98
2022-10-13T14:36:58.430Z,44.53
2022-10-13T14:42:03.453Z,32.65
2022-10-13T14:47:06.984Z,22.75
2022-10-13T14:52:10.623Z,25.27
2022-10-13T14:57:16.143Z,24.15
2022-10-13T15:02:19.798Z,27.10
2022-10-13T15:07:30.190Z,63.50
2022-10-13T15:12:35.576Z,32.90
2022-10-13T15:17:38.953Z,25.33
2022-10-13T15:22:42.401Z,30.75
2022-10-13T15:27:49.116Z,28.98
2022-10-13T15:32:52.679Z,23.38
2022-10-13T15:37:56.060Z,24.95
2022-10-13T15:43:00.856Z,28.67
2022-10-13T15:48:06.458Z,33.80
2022-10-13T15:53:10.121Z,36.53
2022-10-13T15:58:15.158Z,56.45
2022-10-13T16:03:19.632Z,67.85
2022-10-13T16:08:22.994Z,59.10
2022-10-13T16:13:27.839Z,66.15
2022-10-13T16:18:31.830Z,43.15
2022-10-13T16:23:35.565Z,53.45
2022-10-13T16:28:40.586Z,59.90
2022-10-13T16:33:45.480Z,58.55
2022-10-13T16:38:49.705Z,49.10
2022-10-13T16:43:54.534Z,53.28
2022-10-13T16:48:59.151Z,55.17
2022-10-13T16:54:04.411Z,47.30
2022-10-13T16:59:09.773Z,48.10
2022-10-13T17:04:13.425Z,39.50
2022-10-13T17:09:16.876Z,41.88
2022-10-13T17:14:23.280Z,36.55
2022-10-13T17:19:26.951Z,48.08
2022-10-13T17:24:30.940Z,36.08
2022-10-13T17:29:38.686Z,50.35
2022-10-13T17:34:42.068Z,52.95
2022-10-13T17:41:04.353Z,36.58
2022-10-13T17:47:07.697Z,39.08
2022-10-13T17:52:11.564Z,46.13
2022-10-13T17:57:15.099Z,42.65
2022-10-13T18:02:21.653Z,40.22
2022-10-13T18:07:29.189Z,38.67
2022-10-13T18:12:45.211Z,66.25
2022-10-13T18:17:50.322Z,36.53
2022-10-13T18:22:53.678Z,32.65
2022-10-13T18:27:57.041Z,37.33
2022-10-13T18:33:01.843Z,38.88
2022-10-13T18:38:06.382Z,38.47
2022-10-13T18:43:14.501Z,43.63
2022-10-13T18:48:19.926Z,45.67
2022-10-13T18:53:23.488Z,71.65
2022-10-13T18:58:27.017Z,42.92
2022-10-13T19:03:32.635Z,43.70
2022-10-13T19:08:36.516Z,48.83
2022-10-13T19:13:40.704Z,58.42
2022-10-13T19:18:45.729Z,42.88
2022-10-13T19:23:51.282Z,43.25
2022-10-13T19:28:59.866Z,36.85
2022-10-13T19:34:05.094Z,36.38
2022-10-13T19:39:12.296Z,29.05
2022-10-13T19:44:17.578Z,33.10
2022-10-13T19:49:26.030Z,26.27
2022-10-13T19:54:33.829Z,27.80
2022-10-13T19:59:38.246Z,30.77
2022-10-13T20:04:44.101Z,30.80
2022-10-13T20:09:47.660Z,33.85
2022-10-13T20:14:51.078Z,33.22
2022-10-13T20:19:55.925Z,36.95
2022-10-13T20:24:59.289Z,34.65
2022-10-13T20:30:02.763Z,29.83
2022-10-13T20:35:09.161Z,33.92
2022-10-13T20:40:13.000Z,34.55
2022-10-13T20:45:16.607Z,33.30
2022-10-13T20:50:21.409Z,31.88
2022-10-13T20:55:24.793Z,41.03
2022-10-13T21:00:28.485Z,42.92
2022-10-13T21:05:34.788Z,39.58
2022-10-13T21:10:38.371Z,42.65
2022-10-13T21:15:43.592Z,36.88
2022-10-13T21:20:51.582Z,47.72
2022-10-13T21:25:55.437Z,54.95
2022-10-13T21:31:03.221Z,38.58
2022-10-13T21:36:10.884Z,39.70
2022-10-13T21:41:15.967Z,46.40
2022-10-13T21:46:21.712Z,49.45
2022-10-13T21:56:36.885Z,48.50
2022-10-13T22:01:41.322Z,44.72
2022-10-13T22:06:46.329Z,45.58
2022-10-13T22:11:52.887Z,40.75
2022-10-13T22:16:59.677Z,44.63
2022-10-13T22:22:04.528Z,39.63
2022-10-13T22:27:07.842Z,45.92
2022-10-13T22:32:11.206Z,42.80
2022-10-13T22:37:16.352Z,42.15
2022-10-13T22:42:21.337Z,46.88
2022-10-13T22:47:26.422Z,51.97
2022-10-13T22:52:31.185Z,45.15
2022-10-13T22:57:34.545Z,49.30
2022-10-13T23:02:38.117Z,51.75
2022-10-13T23:07:42.814Z,46.85
2022-10-13T23:12:46.354Z,46.33
2022-10-13T23:17:50.190Z,51.17
2022-10-13T23:22:55.525Z,56.88
2022-10-13T23:27:59.145Z,53.97
2022-10-13T23:33:02.777Z,55.97
2022-10-13T23:38:07.751Z,53.33
2022-10-13T23:43:11.531Z,54.92
2022-10-13T23:48:16.470Z,53.55
2022-10-13T23:53:21.293Z,51.45
2022-10-13T23:58:24.633Z,53.53
